createdAt,value
2023-03-13T00:01:39.013Z,4.07
2023-03-13T00:04:05.645Z,4.90
2023-03-13T00:06:35.436Z,4.03
2023-03-13T00:09:03.465Z,4.60
2023-03-13T00:11:30.101Z,4.07
2023-03-13T00:13:58.197Z,4.20
2023-03-13T00:16:26.019Z,4.10
2023-03-13T00:18:53.786Z,4.53
2023-03-13T00:21:22.558Z,4.30
2023-03-13T00:23:49.920Z,4.73
2023-03-13T00:26:18.813Z,3.83
2023-03-13T00:28:46.493Z,4.00
2023-03-13T00:31:15.796Z,4.27
2023-03-13T00:33:44.843Z,4.80
2023-03-13T00:36:14.247Z,4.50
2023-03-13T00:38:40.970Z,4.30
2023-03-13T00:41:12.586Z,4.50
2023-03-13T00:43:40.235Z,3.80
2023-03-13T00:46:07.138Z,4.23
2023-03-13T00:48:34.181Z,3.23
2023-03-13T00:51:01.763Z,3.20
2023-03-13T00:53:28.690Z,4.67
2023-03-13T00:55:58.297Z,4.27
2023-03-13T00:58:26.510Z,4.67
2023-03-13T01:00:53.404Z,4.83
2023-03-13T01:03:21.245Z,5.00
2023-03-13T01:05:58.459Z,4.23
2023-03-13T01:08:24.960Z,3.40
2023-03-13T01:10:51.553Z,4.23
2023-03-13T01:13:18.144Z,4.17
2023-03-13T01:15:44.851Z,4.53
2023-03-13T01:18:11.475Z,4.23
2023-03-13T01:20:40.939Z,4.50
2023-03-13T01:23:07.469Z,4.03
2023-03-13T01:25:37.521Z,4.43
2023-03-13T01:28:04.629Z,4.17
2023-03-13T01:30:31.445Z,4.07
2023-03-13T01:32:58.018Z,4.47
2023-03-13T01:35:24.720Z,4.60
2023-03-13T01:37:52.999Z,4.40
2023-03-13T01:40:19.723Z,4.50
2023-03-13T01:42:58.044Z,4.10
2023-03-13T01:46:02.242Z,3.30
2023-03-13T01:48:42.651Z,3.90
2023-03-13T01:51:13.248Z,5.13
2023-03-13T01:53:43.320Z,3.77
2023-03-13T01:56:13.944Z,3.40
2023-03-13T01:58:40.841Z,4.03
2023-03-13T02:01:07.319Z,4.30
2023-03-13T02:03:34.577Z,3.47
2023-03-13T02:06:06.770Z,3.60
2023-03-13T02:08:38.324Z,3.57
2023-03-13T02:11:13.018Z,4.13
2023-03-13T02:13:39.775Z,3.63
2023-03-13T02:16:06.579Z,3.57
2023-03-13T02:18:33.351Z,3.90
2023-03-13T02:21:10.385Z,3.83
2023-03-13T02:23:48.783Z,3.60
2023-03-13T02:26:16.190Z,3.20
2023-03-13T02:28:42.714Z,3.80
2023-03-13T02:31:09.836Z,3.80
2023-03-13T02:33:40.114Z,4.13
2023-03-13T02:36:08.454Z,4.13
2023-03-13T02:38:39.568Z,3.73
2023-03-13T02:41:06.422Z,3.47
2023-03-13T02:43:35.888Z,3.23
2023-03-13T02:46:15.929Z,3.50
2023-03-13T02:48:47.789Z,2.80
2023-03-13T02:51:30.101Z,3.53
2023-03-13T02:54:00.866Z,3.30
2023-03-13T02:56:28.691Z,3.00
2023-03-13T02:58:55.319Z,3.17
2023-03-13T03:01:22.048Z,3.13
2023-03-13T03:03:48.894Z,3.00
2023-03-13T03:06:15.632Z,3.20
2023-03-13T03:08:43.987Z,3.50
2023-03-13T03:11:11.026Z,3.53
2023-03-13T03:13:37.620Z,3.40
2023-03-13T03:16:12.741Z,3.03
2023-03-13T03:18:39.484Z,2.93
2023-03-13T03:21:07.240Z,3.10
2023-03-13T03:23:34.189Z,3.63
2023-03-13T03:26:01.514Z,3.13
2023-03-13T03:28:28.061Z,3.17
2023-03-13T03:30:55.879Z,2.90
2023-03-13T03:33:23.757Z,3.03
2023-03-13T03:35:50.971Z,2.80
2023-03-13T03:38:17.505Z,2.80
2023-03-13T03:40:44.127Z,3.27
2023-03-13T03:43:10.750Z,3.40
2023-03-13T03:45:37.321Z,2.60
2023-03-13T03:48:03.992Z,3.03
2023-03-13T03:50:30.566Z,3.00
2023-03-13T03:52:57.188Z,2.93
2023-03-13T03:55:23.700Z,2.70
2023-03-13T03:57:50.344Z,3.50
2023-03-13T04:00:17.677Z,3.00
2023-03-13T04:02:44.464Z,2.53
2023-03-13T04:05:11.105Z,3.17
2023-03-13T04:07:37.804Z,3.00
2023-03-13T04:10:05.301Z,2.90
2023-03-13T04:12:31.908Z,3.03
2023-03-13T04:14:58.614Z,3.10
2023-03-13T04:17:25.246Z,3.00
2023-03-13T04:19:51.844Z,3.43
2023-03-13T04:22:18.378Z,2.60
2023-03-13T04:24:45.130Z,2.43
2023-03-13T04:27:11.673Z,2.80
2023-03-13T04:29:38.903Z,2.63
2023-03-13T04:32:05.617Z,3.40
2023-03-13T04:34:32.624Z,3.30
2023-03-13T04:36:59.255Z,2.77
2023-03-13T04:39:25.915Z,2.50
2023-03-13T04:41:53.475Z,2.87
2023-03-13T04:44:20.382Z,3.07
2023-03-13T04:46:46.860Z,3.03
2023-03-13T04:49:14.646Z,3.23
2023-03-13T04:51:42.822Z,2.87
2023-03-13T04:54:09.939Z,2.97
2023-03-13T04:56:43.682Z,2.77
2023-03-13T04:59:14.776Z,3.07
2023-03-13T05:01:41.820Z,2.60
2023-03-13T05:04:09.270Z,2.90
2023-03-13T05:06:35.979Z,2.70
2023-03-13T05:09:03.170Z,2.60
2023-03-13T05:11:29.868Z,2.80
2023-03-13T05:13:56.628Z,2.80
2023-03-13T05:16:23.395Z,2.93
2023-03-13T05:18:50.167Z,2.53
2023-03-13T05:21:17.440Z,2.43
2023-03-13T05:23:43.963Z,2.40
2023-03-13T05:26:10.500Z,2.93
2023-03-13T05:28:37.235Z,2.43
2023-03-13T05:31:03.904Z,2.90
2023-03-13T05:33:30.430Z,2.77
2023-03-13T05:35:57.408Z,3.10
2023-03-13T05:38:24.065Z,2.93
2023-03-13T05:40:50.746Z,3.00
2023-03-13T05:43:18.672Z,2.30
2023-03-13T05:45:45.281Z,2.30
2023-03-13T05:48:11.903Z,2.77
2023-03-13T05:50:38.899Z,2.60
2023-03-13T05:53:05.398Z,2.27
2023-03-13T05:55:32.100Z,3.20
2023-03-13T05:57:58.592Z,2.50
2023-03-13T06:00:25.375Z,2.33
2023-03-13T06:02:51.903Z,2.93
2023-03-13T06:05:18.693Z,2.87
2023-03-13T06:07:45.253Z,2.87
2023-03-13T06:10:12.291Z,2.57
2023-03-13T06:12:38.905Z,3.50
2023-03-13T06:15:07.350Z,3.30
2023-03-13T06:17:34.006Z,3.60
2023-03-13T06:20:00.652Z,2.80
2023-03-13T06:22:27.606Z,2.87
2023-03-13T06:24:54.174Z,2.90
2023-03-13T06:27:20.780Z,2.77
2023-03-13T06:29:47.298Z,2.63
2023-03-13T06:32:13.956Z,2.40
2023-03-13T06:34:40.509Z,2.57
2023-03-13T06:37:07.219Z,2.87
2023-03-13T06:39:34.115Z,2.97
2023-03-13T06:42:00.725Z,3.17
2023-03-13T06:44:27.314Z,3.10
2023-03-13T06:46:54.211Z,3.03
2023-03-13T06:49:20.836Z,3.03
2023-03-13T06:51:47.308Z,2.73
2023-03-13T06:54:13.792Z,2.30
2023-03-13T06:56:40.388Z,2.43
2023-03-13T06:59:07.112Z,2.50
2023-03-13T07:01:33.839Z,2.40
2023-03-13T07:04:00.454Z,3.00
2023-03-13T07:06:27.122Z,2.33
2023-03-13T07:08:53.931Z,2.20
2023-03-13T07:11:20.573Z,2.43
2023-03-13T07:13:47.299Z,2.60
2023-03-13T07:16:14.281Z,2.33
2023-03-13T07:18:44.982Z,2.80
2023-03-13T07:21:12.096Z,3.37
2023-03-13T07:23:39.172Z,2.53
2023-03-13T07:26:08.219Z,2.50
2023-03-13T07:28:37.539Z,2.63
2023-03-13T07:31:08.544Z,2.27
2023-03-13T07:33:35.299Z,2.53
2023-03-13T07:36:02.191Z,2.80
2023-03-13T07:38:29.087Z,2.60
2023-03-13T07:40:57.257Z,3.07
2023-03-13T07:43:24.735Z,2.60
2023-03-13T07:45:52.166Z,2.20
2023-03-13T07:48:19.469Z,2.17
2023-03-13T07:50:46.547Z,2.43
2023-03-13T07:53:15.074Z,2.63
2023-03-13T07:55:42.894Z,2.40
2023-03-13T07:58:09.962Z,2.23
2023-03-13T08:00:36.690Z,2.73
2023-03-13T08:03:05.346Z,2.60
2023-03-13T08:05:31.954Z,2.43
2023-03-13T08:07:58.817Z,2.17
2023-03-13T08:10:25.344Z,2.00
2023-03-13T08:12:52.044Z,2.43
2023-03-13T08:15:21.759Z,2.13
2023-03-13T08:17:48.599Z,2.23
2023-03-13T08:20:15.209Z,1.97
2023-03-13T08:22:41.738Z,2.30
2023-03-13T08:25:08.588Z,2.37
2023-03-13T08:27:35.133Z,3.07
2023-03-13T08:30:01.726Z,2.63
2023-03-13T08:32:28.239Z,2.03
2023-03-13T08:34:54.761Z,2.30
2023-03-13T08:37:21.312Z,2.43
2023-03-13T08:39:48.859Z,2.00
2023-03-13T08:42:15.469Z,2.17
2023-03-13T08:44:42.079Z,2.00
2023-03-13T08:47:08.962Z,2.50
2023-03-13T08:49:35.595Z,2.27
2023-03-13T08:52:04.683Z,1.90
2023-03-13T08:54:31.828Z,2.10
2023-03-13T08:56:59.842Z,1.60
2023-03-13T08:59:26.883Z,2.00
2023-03-13T09:01:53.605Z,1.70
2023-03-13T09:04:20.444Z,2.80
2023-03-13T09:06:47.069Z,2.50
2023-03-13T09:09:14.619Z,2.33
2023-03-13T09:11:41.477Z,2.40
2023-03-13T09:14:08.954Z,2.20
2023-03-13T09:16:35.576Z,2.07
2023-03-13T09:19:02.184Z,1.80
2023-03-13T09:21:33.726Z,1.80
2023-03-13T09:24:00.690Z,1.70
2023-03-13T09:26:28.060Z,1.70
2023-03-13T09:28:55.370Z,2.10
2023-03-13T09:31:24.923Z,2.53
2023-03-13T09:33:51.774Z,1.60
2023-03-13T09:36:22.029Z,2.40
2023-03-13T09:38:48.903Z,1.80
2023-03-13T09:41:18.715Z,2.00
2023-03-13T09:44:31.336Z,1.90
2023-03-13T09:47:24.837Z,1.83
2023-03-13T09:50:01.373Z,1.60
2023-03-13T09:52:36.597Z,1.70
2023-03-13T09:55:06.112Z,1.97
2023-03-13T09:57:35.353Z,1.73
2023-03-13T10:00:13.765Z,2.10
2023-03-13T10:02:44.640Z,2.50
2023-03-13T10:05:18.034Z,2.20
2023-03-13T10:07:44.874Z,2.00
2023-03-13T10:10:19.990Z,2.30
2023-03-13T10:12:48.355Z,2.40
2023-03-13T10:15:39.835Z,2.10
2023-03-13T10:18:14.588Z,2.50
2023-03-13T10:20:43.122Z,2.40
2023-03-13T10:23:18.945Z,2.10
2023-03-13T10:25:45.633Z,2.10
2023-03-13T10:28:14.867Z,2.77
2023-03-13T10:30:48.435Z,2.80
2023-03-13T10:33:24.198Z,2.60
2023-03-13T10:36:13.817Z,1.90
2023-03-13T10:38:52.469Z,2.00
2023-03-13T10:41:35.405Z,2.30
2023-03-13T10:44:08.340Z,2.40
2023-03-13T10:46:40.973Z,1.80
2023-03-13T10:49:23.465Z,3.80
2023-03-13T10:51:53.833Z,2.83
2023-03-13T10:54:28.560Z,2.93
2023-03-13T10:57:32.019Z,2.20
2023-03-13T10:59:59.461Z,2.13
2023-03-13T11:02:29.067Z,2.40
2023-03-13T11:04:56.722Z,1.80
2023-03-13T11:07:33.585Z,2.37
2023-03-13T11:10:01.687Z,2.07
2023-03-13T11:12:28.633Z,2.80
2023-03-13T11:14:59.249Z,2.20
2023-03-13T11:17:31.394Z,2.47
2023-03-13T11:20:09.270Z,2.40
2023-03-13T11:22:51.929Z,2.70
2023-03-13T11:25:18.869Z,2.60
2023-03-13T11:27:51.010Z,2.37
2023-03-13T11:30:34.649Z,2.20
2023-03-13T11:33:17.603Z,1.97
2023-03-13T11:35:50.650Z,2.73
2023-03-13T11:38:34.131Z,3.50
2023-03-13T11:41:18.986Z,2.50
2023-03-13T11:43:54.494Z,1.90
2023-03-13T11:46:33.568Z,3.20
2023-03-13T11:49:23.055Z,1.83
2023-03-13T11:52:18.904Z,2.80
2023-03-13T11:54:48.662Z,2.33
2023-03-13T11:57:30.772Z,2.00
2023-03-13T12:00:04.930Z,2.03
2023-03-13T12:02:34.982Z,2.10
2023-03-13T12:05:07.716Z,2.10
2023-03-13T12:07:47.348Z,1.60
2023-03-13T12:10:36.009Z,3.30
2023-03-13T12:13:22.442Z,2.43
2023-03-13T12:15:55.045Z,2.20
2023-03-13T12:18:51.024Z,2.07
2023-03-13T12:21:20.833Z,2.17
2023-03-13T12:24:03.148Z,1.63
2023-03-13T12:26:40.628Z,2.10
2023-03-13T12:29:15.486Z,2.03
2023-03-13T12:31:51.335Z,2.53
2023-03-13T12:34:51.632Z,2.23
2023-03-13T12:37:45.167Z,2.30
2023-03-13T12:40:12.230Z,2.30
2023-03-13T12:42:44.855Z,1.93
2023-03-13T12:45:20.120Z,2.53
2023-03-13T12:48:20.762Z,2.40
2023-03-13T12:50:54.592Z,2.50
2023-03-13T12:53:46.592Z,2.67
2023-03-13T12:56:22.403Z,2.20
2023-03-13T12:58:53.089Z,2.27
2023-03-13T13:01:47.960Z,2.20
2023-03-13T13:04:18.710Z,2.33
2023-03-13T13:07:05.144Z,2.13
2023-03-13T13:09:32.443Z,1.63
2023-03-13T13:12:24.347Z,2.17
2023-03-13T13:14:50.806Z,2.30
2023-03-13T13:17:24.365Z,2.13
2023-03-13T13:19:51.057Z,2.43
2023-03-13T13:22:39.159Z,1.80
2023-03-13T13:25:11.832Z,1.57
2023-03-13T13:27:38.301Z,1.87
2023-03-13T13:30:17.209Z,2.00
2023-03-13T13:32:54.568Z,1.60
2023-03-13T13:35:34.587Z,2.53
2023-03-13T13:38:34.586Z,1.80
2023-03-13T13:41:26.327Z,2.00
2023-03-13T13:44:19.637Z,2.33
2023-03-13T13:46:46.640Z,2.03
2023-03-13T13:49:19.775Z,2.03
2023-03-13T13:52:12.741Z,2.37
2023-03-13T13:54:42.222Z,1.60
2023-03-13T13:57:19.006Z,2.20
2023-03-13T13:59:59.846Z,1.80
2023-03-13T14:02:32.177Z,2.00
2023-03-13T14:05:16.042Z,2.33
2023-03-13T14:07:50.519Z,1.87
2023-03-13T14:10:26.919Z,2.23
2023-03-13T14:12:55.337Z,2.57
2023-03-13T14:15:27.515Z,1.93
2023-03-13T14:17:56.358Z,3.13
2023-03-13T14:20:33.662Z,3.00
2023-03-13T14:23:06.226Z,2.10
2023-03-13T14:25:43.065Z,3.00
2023-03-13T14:28:24.922Z,2.80
2023-03-13T14:30:54.017Z,2.20
2023-03-13T14:33:20.643Z,2.33
2023-03-13T14:35:47.808Z,1.80
2023-03-13T14:38:23.052Z,2.30
2023-03-13T14:40:50.489Z,2.70
2023-03-13T14:43:25.270Z,2.50
2023-03-13T14:45:52.302Z,2.20
2023-03-13T14:48:26.878Z,2.63
2023-03-13T14:51:14.176Z,2.53
2023-03-13T14:53:54.226Z,2.63
2023-03-13T14:56:21.327Z,3.47
2023-03-13T14:58:50.861Z,2.70
2023-03-13T15:01:30.859Z,3.40
2023-03-13T15:03:57.345Z,7.33
2023-03-13T15:06:24.754Z,3.50
2023-03-13T15:09:14.603Z,2.73
2023-03-13T15:11:57.259Z,1.80
2023-03-13T15:14:41.149Z,1.83
2023-03-13T15:17:12.852Z,1.63
2023-03-13T15:19:39.343Z,2.40
2023-03-13T15:22:06.014Z,2.50
2023-03-13T15:24:32.631Z,3.33
2023-03-13T15:26:59.109Z,2.23
2023-03-13T15:29:25.782Z,2.57
2023-03-13T15:31:52.415Z,3.23
2023-03-13T15:34:25.491Z,2.67
2023-03-13T15:36:52.244Z,3.10
2023-03-13T15:39:20.541Z,3.30
2023-03-13T15:41:47.133Z,3.10
2023-03-13T15:44:13.874Z,2.93
2023-03-13T15:46:40.407Z,2.20
2023-03-13T15:49:11.443Z,2.67
2023-03-13T15:51:38.704Z,2.10
2023-03-13T15:54:06.515Z,2.17
2023-03-13T15:56:36.586Z,3.00
2023-03-13T15:59:10.695Z,2.60
2023-03-13T16:01:37.640Z,2.27
2023-03-13T16:04:04.882Z,2.40
2023-03-13T16:06:31.642Z,2.10
2023-03-13T16:09:06.632Z,1.90
2023-03-13T16:11:33.472Z,2.20
2023-03-13T16:14:00.321Z,2.60
2023-03-13T16:16:31.727Z,1.87
2023-03-13T16:18:58.984Z,2.73
2023-03-13T16:21:27.972Z,1.97
2023-03-13T16:23:55.080Z,1.90
2023-03-13T16:26:24.176Z,2.40
2023-03-13T16:28:51.901Z,2.30
2023-03-13T16:31:29.915Z,2.10
2023-03-13T16:33:57.827Z,2.37
2023-03-13T16:36:28.665Z,2.40
2023-03-13T16:38:55.576Z,3.43
2023-03-13T16:41:24.854Z,3.60
2023-03-13T16:43:51.457Z,4.03
2023-03-13T16:46:23.723Z,5.87
2023-03-13T16:48:51.090Z,5.47
2023-03-13T16:51:20.187Z,4.30
2023-03-13T16:53:48.326Z,4.63
2023-03-13T16:56:20.537Z,6.10
2023-03-13T16:58:47.579Z,9.53
2023-03-13T17:01:14.137Z,9.00
2023-03-13T17:03:40.601Z,8.97
2023-03-13T17:06:12.358Z,7.30
2023-03-13T17:08:39.676Z,10.23
2023-03-13T17:11:06.385Z,10.27
2023-03-13T17:13:32.997Z,6.80
2023-03-13T17:16:01.044Z,10.10
2023-03-13T17:18:27.540Z,22.03
2023-03-13T17:20:54.810Z,17.13
2023-03-13T17:23:21.380Z,10.60
2023-03-13T17:25:47.945Z,8.00
2023-03-13T17:28:14.906Z,5.90
2023-03-13T17:30:41.415Z,6.27
2023-03-13T17:33:08.066Z,4.63
2023-03-13T17:35:34.548Z,2.90
2023-03-13T17:38:01.147Z,2.37
2023-03-13T17:40:29.169Z,2.10
2023-03-13T17:42:56.428Z,3.50
2023-03-13T17:45:24.243Z,2.53
2023-03-13T17:47:50.897Z,3.00
2023-03-13T17:50:27.285Z,4.03
2023-03-13T17:52:54.277Z,2.90
2023-03-13T17:55:21.364Z,3.03
2023-03-13T17:57:52.320Z,2.43
2023-03-13T18:00:21.872Z,2.50
2023-03-13T18:02:48.636Z,3.87
2023-03-13T18:05:15.412Z,3.73
2023-03-13T18:07:44.187Z,2.87
2023-03-13T18:10:24.861Z,3.07
2023-03-13T18:12:51.845Z,2.00
2023-03-13T18:15:22.778Z,2.37
2023-03-13T18:17:50.147Z,2.03
2023-03-13T18:20:22.739Z,4.30
2023-03-13T18:22:49.381Z,3.30
2023-03-13T18:25:16.026Z,3.03
2023-03-13T18:27:42.588Z,2.00
2023-03-13T18:30:20.375Z,2.43
2023-03-13T18:32:47.254Z,2.60
2023-03-13T18:35:14.939Z,2.27
2023-03-13T18:37:43.868Z,2.20
2023-03-13T18:40:22.765Z,2.30
2023-03-13T18:42:49.239Z,2.30
2023-03-13T18:45:18.219Z,2.40
2023-03-13T18:47:45.101Z,2.10
2023-03-13T18:50:17.217Z,1.97
2023-03-13T18:52:43.752Z,2.00
2023-03-13T18:55:10.527Z,2.07
2023-03-13T18:57:37.279Z,2.40
2023-03-13T19:00:14.099Z,2.57
2023-03-13T19:02:40.998Z,1.97
2023-03-13T19:05:07.780Z,2.87
2023-03-13T19:07:34.324Z,2.63
2023-03-13T19:10:01.828Z,2.00
2023-03-13T19:12:29.428Z,2.17
2023-03-13T19:14:56.053Z,2.10
2023-03-13T19:17:27.060Z,2.23
2023-03-13T19:19:57.284Z,2.53
2023-03-13T19:22:25.159Z,2.33
2023-03-13T19:24:51.748Z,2.23
2023-03-13T19:27:18.319Z,3.10
2023-03-13T19:29:46.197Z,2.50
2023-03-13T19:32:17.451Z,2.40
2023-03-13T19:34:44.344Z,1.90
2023-03-13T19:37:12.732Z,2.00
2023-03-13T19:39:39.252Z,2.20
2023-03-13T19:42:08.688Z,2.10
2023-03-13T19:44:36.057Z,1.93
2023-03-13T19:47:04.343Z,2.37
2023-03-13T19:49:31.369Z,2.40
2023-03-13T19:51:58.776Z,1.90
2023-03-13T19:54:25.348Z,1.83
2023-03-13T19:56:53.655Z,1.97
2023-03-13T19:59:26.784Z,2.00
2023-03-13T20:01:56.005Z,5.23
2023-03-13T20:04:22.929Z,2.60
2023-03-13T20:06:49.563Z,2.40
2023-03-13T20:09:17.864Z,2.27
2023-03-13T20:11:45.008Z,2.20
2023-03-13T20:14:11.757Z,2.10
2023-03-13T20:16:39.191Z,1.83
2023-03-13T20:19:05.879Z,2.20
2023-03-13T20:21:36.992Z,2.57
2023-03-13T20:24:04.363Z,2.60
2023-03-13T20:26:31.229Z,2.07
2023-03-13T20:28:58.548Z,2.10
2023-03-13T20:31:30.031Z,1.93
2023-03-13T20:33:57.691Z,2.00
2023-03-13T20:36:24.720Z,1.73
2023-03-13T20:38:51.672Z,1.80
2023-03-13T20:41:21.093Z,2.20
2023-03-13T20:43:47.853Z,1.93
2023-03-13T20:46:14.817Z,2.30
2023-03-13T20:48:42.441Z,1.87
2023-03-13T20:51:09.667Z,2.10
2023-03-13T20:53:44.152Z,2.50
2023-03-13T20:56:11.677Z,2.13
2023-03-13T20:58:38.661Z,2.10
2023-03-13T21:01:06.405Z,2.10
2023-03-13T21:03:35.744Z,2.10
2023-03-13T21:06:09.753Z,2.30
2023-03-13T21:08:38.570Z,2.67
2023-03-13T21:11:12.222Z,3.60
2023-03-13T21:13:38.822Z,2.57
2023-03-13T21:16:05.864Z,2.00
2023-03-13T21:18:32.411Z,2.50
2023-03-13T21:21:07.323Z,2.40
2023-03-13T21:23:34.201Z,2.07
2023-03-13T21:26:00.847Z,2.03
2023-03-13T21:28:28.320Z,2.30
2023-03-13T21:30:55.419Z,2.20
2023-03-13T21:33:22.294Z,2.67
2023-03-13T21:35:50.350Z,2.73
2023-03-13T21:38:17.228Z,2.07
2023-03-13T21:40:43.826Z,3.83
2023-03-13T21:43:10.433Z,2.40
2023-03-13T21:45:37.150Z,2.17
2023-03-13T21:48:04.007Z,2.90
2023-03-13T21:50:30.878Z,1.97
2023-03-13T21:52:57.458Z,2.60
2023-03-13T21:55:24.138Z,2.40
2023-03-13T21:57:51.121Z,3.17
2023-03-13T22:00:17.884Z,1.93
2023-03-13T22:02:44.530Z,1.90
2023-03-13T22:05:11.489Z,2.10
2023-03-13T22:07:41.238Z,3.90
2023-03-13T22:10:08.362Z,2.90
2023-03-13T22:12:35.951Z,2.70
2023-03-13T22:15:02.557Z,2.40
2023-03-13T22:17:29.010Z,2.33
2023-03-13T22:19:55.573Z,1.87
2023-03-13T22:22:22.210Z,2.03
2023-03-13T22:24:49.114Z,2.33
2023-03-13T22:27:17.741Z,3.20
2023-03-13T22:32:18.540Z,2.90
2023-03-13T22:34:47.175Z,2.53
2023-03-13T22:37:13.941Z,2.60
2023-03-13T22:39:40.847Z,2.43
2023-03-13T22:42:07.704Z,1.97
2023-03-13T22:44:34.379Z,2.47
2023-03-13T22:47:00.949Z,2.00
2023-03-13T22:49:27.627Z,2.53
2023-03-13T22:51:54.097Z,2.47
2023-03-13T22:54:20.615Z,1.80
2023-03-13T22:56:47.181Z,2.00
2023-03-13T22:59:13.793Z,1.80
2023-03-13T23:01:40.483Z,2.40
2023-03-13T23:04:07.258Z,2.57
2023-03-13T23:06:33.868Z,2.43
2023-03-13T23:09:00.406Z,2.10
2023-03-13T23:11:27.027Z,2.57
2023-03-13T23:13:53.680Z,2.67
2023-03-13T23:16:20.287Z,2.37
2023-03-13T23:18:46.950Z,2.20
2023-03-13T23:21:14.477Z,2.40
2023-03-13T23:23:42.016Z,2.13
2023-03-13T23:26:11.384Z,2.37
2023-03-13T23:28:39.158Z,2.37
2023-03-13T23:31:16.012Z,2.33
2023-03-13T23:33:43.105Z,2.30
2023-03-13T23:36:12.722Z,2.57
2023-03-13T23:38:40.122Z,2.40
2023-03-13T23:41:12.308Z,2.40
2023-03-13T23:43:39.597Z,1.83
2023-03-13T23:46:13.410Z,1.90
2023-03-13T23:48:40.092Z,2.93
2023-03-13T23:51:06.936Z,2.50
2023-03-13T23:53:38.058Z,2.43
2023-03-13T23:56:05.043Z,2.00
2023-03-13T23:58:31.669Z,2.83
